sensor_id;sensor_type;location;lat;lon;timestamp;pressure;altitude;pressure_sealevel;temperature;humidity
6038;BME280;3047;42.600;23.470;2023-04-25T00:00:00;92385.28;;;11.62;100.00
6038;BME280;3047;42.600;23.470;2023-04-25T00:02:28;92379.75;;;11.73;100.00
6038;BME280;3047;42.600;23.470;2023-04-25T00:04:57;92375.81;;;11.67;100.00
6038;BME280;3047;42.600;23.470;2023-04-25T00:07:25;92344.88;;;11.60;100.00
6038;BME280;3047;42.600;23.470;2023-04-25T00:09:53;92366.09;;;11.77;100.00
6038;BME280;3047;42.600;23.470;2023-04-25T00:12:19;92359.09;;;11.82;100.00
6038;BME280;3047;42.600;23.470;2023-04-25T00:14:48;92357.28;;;11.85;100.00
6038;BME280;3047;42.600;23.470;2023-04-25T00:17:16;92346.53;;;11.80;100.00
6038;BME280;3047;42.600;23.470;2023-04-25T00:19:44;92337.66;;;11.72;100.00
6038;BME280;3047;42.600;23.470;2023-04-25T00:22:12;92333.63;;;11.68;100.00
6038;BME280;3047;42.600;23.470;2023-04-25T00:24:39;92322.38;;;11.73;100.00
6038;BME280;3047;42.600;23.470;2023-04-25T00:27:07;92330.75;;;11.75;100.00
6038;BME280;3047;42.600;23.470;2023-04-25T00:29:34;92323.97;;;11.76;100.00
6038;BME280;3047;42.600;23.470;2023-04-25T00:32:01;92311.31;;;11.76;100.00
6038;BME280;3047;42.600;23.470;2023-04-25T00:34:27;92306.13;;;11.79;100.00
6038;BME280;3047;42.600;23.470;2023-04-25T00:36:54;92300.06;;;11.83;100.00
6038;BME280;3047;42.600;23.470;2023-04-25T00:39:22;92270.16;;;11.72;100.00
6038;BME280;3047;42.600;23.470;2023-04-25T00:41:50;92250.50;;;11.60;100.00
6038;BME280;3047;42.600;23.470;2023-04-25T00:44:20;92273.28;;;11.77;100.00
6038;BME280;3047;42.600;23.470;2023-04-25T00:46:47;92261.75;;;11.72;100.00
6038;BME280;3047;42.600;23.470;2023-04-25T00:49:14;92257.09;;;11.62;100.00
6038;BME280;3047;42.600;23.470;2023-04-25T00:51:42;92254.88;;;11.56;100.00
6038;BME280;3047;42.600;23.470;2023-04-25T00:54:10;92238.06;;;11.55;100.00
6038;BME280;3047;42.600;23.470;2023-04-25T00:56:38;92245.47;;;11.58;100.00
6038;BME280;3047;42.600;23.470;2023-04-25T00:59:05;92219.75;;;11.31;100.00
6038;BME280;3047;42.600;23.470;2023-04-25T01:01:33;92248.88;;;11.40;100.00
6038;BME280;3047;42.600;23.470;2023-04-25T01:04:00;92254.88;;;11.37;100.00
6038;BME280;3047;42.600;23.470;2023-04-25T01:06:27;92242.22;;;11.37;100.00
6038;BME280;3047;42.600;23.470;2023-04-25T01:08:54;92242.09;;;11.41;100.00
6038;BME280;3047;42.600;23.470;2023-04-25T01:11:21;92235.41;;;11.39;100.00
6038;BME280;3047;42.600;23.470;2023-04-25T01:13:48;92235.31;;;11.41;100.00
6038;BME280;3047;42.600;23.470;2023-04-25T01:16:14;92226.38;;;11.34;100.00
6038;BME280;3047;42.600;23.470;2023-04-25T01:18:43;92230.41;;;11.38;100.00
6038;BME280;3047;42.600;23.470;2023-04-25T01:21:13;92216.22;;;11.35;100.00
6038;BME280;3047;42.600;23.470;2023-04-25T01:23:40;92231.16;;;11.40;100.00
6038;BME280;3047;42.600;23.470;2023-04-25T01:26:09;92163.34;;;10.93;100.00
6038;BME280;3047;42.600;23.470;2023-04-25T01:28:37;92226.84;;;11.42;100.00
6038;BME280;3047;42.600;23.470;2023-04-25T01:31:06;92205.50;;;11.30;100.00
6038;BME280;3047;42.600;23.470;2023-04-25T01:33:33;92222.34;;;11.49;100.00
6038;BME280;3047;42.600;23.470;2023-04-25T01:35:59;92198.97;;;11.44;100.00
6038;BME280;3047;42.600;23.470;2023-04-25T01:38:28;92216.16;;;11.54;100.00
6038;BME280;3047;42.600;23.470;2023-04-25T01:40:55;92219.25;;;11.61;100.00
6038;BME280;3047;42.600;23.470;2023-04-25T01:43:22;92215.75;;;11.63;100.00
6038;BME280;3047;42.600;23.470;2023-04-25T01:45:49;92190.38;;;11.48;100.00
6038;BME280;3047;42.600;23.470;2023-04-25T01:48:16;92207.41;;;11.61;100.00
6038;BME280;3047;42.600;23.470;2023-04-25T01:50:43;92183.94;;;11.41;100.00
6038;BME280;3047;42.600;23.470;2023-04-25T01:53:12;92191.03;;;11.51;100.00
6038;BME280;3047;42.600;23.470;2023-04-25T01:55:41;92204.63;;;11.68;100.00
6038;BME280;3047;42.600;23.470;2023-04-25T01:58:08;92208.09;;;11.65;100.00
6038;BME280;3047;42.600;23.470;2023-04-25T02:00:37;92210.41;;;11.70;100.00
6038;BME280;3047;42.600;23.470;2023-04-25T02:03:04;92194.25;;;11.55;100.00
6038;BME280;3047;42.600;23.470;2023-04-25T02:05:34;92211.22;;;11.70;100.00
6038;BME280;3047;42.600;23.470;2023-04-25T02:08:01;92163.84;;;11.37;100.00
6038;BME280;3047;42.600;23.470;2023-04-25T02:10:28;92190.06;;;11.54;100.00
6038;BME280;3047;42.600;23.470;2023-04-25T02:12:56;92216.97;;;11.74;100.00
6038;BME280;3047;42.600;23.470;2023-04-25T02:15:23;92213.53;;;11.75;100.00
6038;BME280;3047;42.600;23.470;2023-04-25T02:17:50;92200.03;;;11.57;100.00
6038;BME280;3047;42.600;23.470;2023-04-25T02:20:19;92195.88;;;11.56;100.00
6038;BME280;3047;42.600;23.470;2023-04-25T02:22:46;92212.25;;;11.66;100.00
6038;BME280;3047;42.600;23.470;2023-04-25T02:25:13;92208.66;;;11.53;100.00
6038;BME280;3047;42.600;23.470;2023-04-25T02:27:41;92168.13;;;11.18;100.00
6038;BME280;3047;42.600;23.470;2023-04-25T02:30:10;92185.91;;;11.34;100.00
6038;BME280;3047;42.600;23.470;2023-04-25T02:32:36;92193.31;;;11.38;100.00
6038;BME280;3047;42.600;23.470;2023-04-25T02:35:04;92185.53;;;11.43;100.00
6038;BME280;3047;42.600;23.470;2023-04-25T02:37:31;92193.44;;;11.35;100.00
6038;BME280;3047;42.600;23.470;2023-04-25T02:39:58;92157.75;;;11.05;100.00
6038;BME280;3047;42.600;23.470;2023-04-25T02:42:26;92187.63;;;11.33;100.00
6038;BME280;3047;42.600;23.470;2023-04-25T02:44:53;92192.44;;;11.21;100.00
6038;BME280;3047;42.600;23.470;2023-04-25T02:47:21;92192.84;;;11.11;100.00
6038;BME280;3047;42.600;23.470;2023-04-25T02:49:48;92137.69;;;10.83;100.00
6038;BME280;3047;42.600;23.470;2023-04-25T02:52:14;92181.81;;;11.14;100.00
6038;BME280;3047;42.600;23.470;2023-04-25T02:54:41;92109.84;;;10.66;100.00
6038;BME280;3047;42.600;23.470;2023-04-25T02:57:08;92146.38;;;10.78;100.00
6038;BME280;3047;42.600;23.470;2023-04-25T02:59:35;92189.63;;;10.89;100.00
6038;BME280;3047;42.600;23.470;2023-04-25T03:02:02;92140.00;;;10.50;100.00
6038;BME280;3047;42.600;23.470;2023-04-25T03:04:30;92187.63;;;10.77;100.00
6038;BME280;3047;42.600;23.470;2023-04-25T03:06:58;92152.81;;;10.46;100.00
6038;BME280;3047;42.600;23.470;2023-04-25T03:09:26;92135.69;;;10.33;100.00
6038;BME280;3047;42.600;23.470;2023-04-25T03:11:53;92178.28;;;10.60;100.00
6038;BME280;3047;42.600;23.470;2023-04-25T03:14:19;92183.81;;;10.68;100.00
6038;BME280;3047;42.600;23.470;2023-04-25T03:16:46;92187.44;;;10.62;100.00
6038;BME280;3047;42.600;23.470;2023-04-25T03:19:13;92170.91;;;10.55;100.00
6038;BME280;3047;42.600;23.470;2023-04-25T03:21:42;92174.38;;;10.53;100.00
6038;BME280;3047;42.600;23.470;2023-04-25T03:24:09;92174.25;;;10.56;100.00
6038;BME280;3047;42.600;23.470;2023-04-25T03:26:37;92169.72;;;10.44;100.00
6038;BME280;3047;42.600;23.470;2023-04-25T03:29:03;92179.69;;;10.47;100.00
6038;BME280;3047;42.600;23.470;2023-04-25T03:31:30;92178.56;;;10.54;100.00
6038;BME280;3047;42.600;23.470;2023-04-25T03:33:57;92176.34;;;10.46;100.00
6038;BME280;3047;42.600;23.470;2023-04-25T03:36:24;92172.72;;;10.52;100.00
6038;BME280;3047;42.600;23.470;2023-04-25T03:38:52;92172.25;;;10.44;100.00
6038;BME280;3047;42.600;23.470;2023-04-25T03:41:18;92169.66;;;10.45;100.00
6038;BME280;3047;42.600;23.470;2023-04-25T03:43:45;92142.75;;;10.24;100.00
6038;BME280;3047;42.600;23.470;2023-04-25T03:46:12;92174.75;;;10.44;100.00
6038;BME280;3047;42.600;23.470;2023-04-25T03:48:39;92171.56;;;10.40;100.00
6038;BME280;3047;42.600;23.470;2023-04-25T03:51:05;92173.72;;;10.49;100.00
6038;BME280;3047;42.600;23.470;2023-04-25T03:53:32;92162.03;;;10.47;100.00
6038;BME280;3047;42.600;23.470;2023-04-25T03:56:00;92185.53;;;10.68;100.00
6038;BME280;3047;42.600;23.470;2023-04-25T03:58:27;92174.59;;;10.67;100.00
6038;BME280;3047;42.600;23.470;2023-04-25T04:00:53;92122.66;;;10.43;100.00
6038;BME280;3047;42.600;23.470;2023-04-25T04:03:20;92177.41;;;10.80;100.00
6038;BME280;3047;42.600;23.470;2023-04-25T04:05:47;92083.88;;;10.25;100.00
6038;BME280;3047;42.600;23.470;2023-04-25T04:08:14;92034.91;;;9.89;100.00
6038;BME280;3047;42.600;23.470;2023-04-25T04:10:40;92182.75;;;10.93;100.00
6038;BME280;3047;42.600;23.470;2023-04-25T04:13:08;92164.84;;;10.97;100.00
6038;BME280;3047;42.600;23.470;2023-04-25T04:15:35;92173.72;;;11.06;100.00
6038;BME280;3047;42.600;23.470;2023-04-25T04:18:02;92159.66;;;11.00;100.00
6038;BME280;3047;42.600;23.470;2023-04-25T04:20:29;92175.09;;;11.13;100.00
6038;BME280;3047;42.600;23.470;2023-04-25T04:22:56;92170.59;;;11.20;100.00
6038;BME280;3047;42.600;23.470;2023-04-25T04:25:23;92161.16;;;11.23;100.00
6038;BME280;3047;42.600;23.470;2023-04-25T04:27:51;92162.31;;;11.35;100.00
6038;BME280;3047;42.600;23.470;2023-04-25T04:30:21;92140.81;;;11.26;100.00
6038;BME280;3047;42.600;23.470;2023-04-25T04:32:49;92173.16;;;11.37;100.00
6038;BME280;3047;42.600;23.470;2023-04-25T04:35:16;92166.69;;;11.31;100.00
6038;BME280;3047;42.600;23.470;2023-04-25T04:37:42;92180.75;;;11.54;100.00
6038;BME280;3047;42.600;23.470;2023-04-25T04:40:11;92189.22;;;11.72;100.00
6038;BME280;3047;42.600;23.470;2023-04-25T04:42:40;92188.09;;;11.78;100.00
6038;BME280;3047;42.600;23.470;2023-04-25T04:45:08;92127.16;;;11.48;100.00
6038;BME280;3047;42.600;23.470;2023-04-25T04:47:36;92171.84;;;11.83;100.00
6038;BME280;3047;42.600;23.470;2023-04-25T04:50:05;92178.41;;;11.87;100.00
6038;BME280;3047;42.600;23.470;2023-04-25T04:52:34;92174.16;;;11.88;100.00
6038;BME280;3047;42.600;23.470;2023-04-25T04:55:01;92170.00;;;11.87;100.00
6038;BME280;3047;42.600;23.470;2023-04-25T04:57:27;92171.25;;;11.96;100.00
6038;BME280;3047;42.600;23.470;2023-04-25T04:59:54;92168.44;;;11.66;100.00
6038;BME280;3047;42.600;23.470;2023-04-25T05:02:21;92185.19;;;11.68;100.00
6038;BME280;3047;42.600;23.470;2023-04-25T05:04:50;92190.13;;;11.71;100.00
6038;BME280;3047;42.600;23.470;2023-04-25T05:07:17;92174.53;;;11.61;100.00
6038;BME280;3047;42.600;23.470;2023-04-25T05:09:44;92169.50;;;11.79;100.00
6038;BME280;3047;42.600;23.470;2023-04-25T05:12:11;92186.00;;;11.87;100.00
6038;BME280;3047;42.600;23.470;2023-04-25T05:14:37;92178.41;;;11.87;100.00
6038;BME280;3047;42.600;23.470;2023-04-25T05:17:04;92152.75;;;11.76;100.00
6038;BME280;3047;42.600;23.470;2023-04-25T05:19:33;92185.53;;;11.97;100.00
6038;BME280;3047;42.600;23.470;2023-04-25T05:22:02;92118.56;;;11.50;100.00
6038;BME280;3047;42.600;23.470;2023-04-25T05:24:29;92193.72;;;11.84;100.00
6038;BME280;3047;42.600;23.470;2023-04-25T05:26:56;92164.41;;;11.61;100.00
6038;BME280;3047;42.600;23.470;2023-04-25T05:29:22;92183.63;;;11.66;100.00
6038;BME280;3047;42.600;23.470;2023-04-25T05:31:49;92209.38;;;11.74;100.00
6038;BME280;3047;42.600;23.470;2023-04-25T05:34:16;92190.59;;;11.60;100.00
6038;BME280;3047;42.600;23.470;2023-04-25T05:36:42;92220.25;;;11.76;100.00
6038;BME280;3047;42.600;23.470;2023-04-25T05:39:11;92224.59;;;11.55;100.00
6038;BME280;3047;42.600;23.470;2023-04-25T05:41:37;92230.06;;;11.46;100.00
6038;BME280;3047;42.600;23.470;2023-04-25T05:44:05;92237.44;;;11.50;100.00
6038;BME280;3047;42.600;23.470;2023-04-25T05:46:32;92196.66;;;11.39;100.00
6038;BME280;3047;42.600;23.470;2023-04-25T05:48:58;92190.63;;;11.42;100.00
6038;BME280;3047;42.600;23.470;2023-04-25T05:51:25;92206.59;;;11.61;100.00
6038;BME280;3047;42.600;23.470;2023-04-25T05:53:52;92209.88;;;11.63;100.00
6038;BME280;3047;42.600;23.470;2023-04-25T05:56:21;92204.75;;;11.64;100.00
6038;BME280;3047;42.600;23.470;2023-04-25T05:58:47;92203.78;;;11.67;100.00
6038;BME280;3047;42.600;23.470;2023-04-25T06:01:14;92157.28;;;11.52;100.00
6038;BME280;3047;42.600;23.470;2023-04-25T06:03:41;92193.00;;;11.81;100.00
6038;BME280;3047;42.600;23.470;2023-04-25T06:06:08;92173.44;;;11.67;100.00
6038;BME280;3047;42.600;23.470;2023-04-25T06:08:36;92185.31;;;11.65;100.00
6038;BME280;3047;42.600;23.470;2023-04-25T06:11:03;92201.63;;;11.77;100.00
6038;BME280;3047;42.600;23.470;2023-04-25T06:13:32;92209.81;;;11.82;100.00
6038;BME280;3047;42.600;23.470;2023-04-25T06:15:58;92203.72;;;11.87;100.00
6038;BME280;3047;42.600;23.470;2023-04-25T06:18:25;92206.25;;;11.87;100.00
6038;BME280;3047;42.600;23.470;2023-04-25T06:20:52;92202.94;;;11.85;100.00
6038;BME280;3047;42.600;23.470;2023-04-25T06:23:18;92202.94;;;11.85;100.00
6038;BME280;3047;42.600;23.470;2023-04-25T06:25:45;92194.25;;;11.91;100.00
6038;BME280;3047;42.600;23.470;2023-04-25T06:28:12;92171.53;;;11.90;100.00
6038;BME280;3047;42.600;23.470;2023-04-25T06:30:40;92213.38;;;12.14;100.00
6038;BME280;3047;42.600;23.470;2023-04-25T06:33:07;92224.69;;;12.07;100.00
6038;BME280;3047;42.600;23.470;2023-04-25T06:35:34;92208.47;;;12.11;100.00
6038;BME280;3047;42.600;23.470;2023-04-25T06:38:01;92205.41;;;12.22;100.00
6038;BME280;3047;42.600;23.470;2023-04-25T06:40:28;92213.16;;;12.36;100.00
6038;BME280;3047;42.600;23.470;2023-04-25T06:42:54;92222.03;;;12.45;100.00
6038;BME280;3047;42.600;23.470;2023-04-25T06:45:21;92222.16;;;12.59;100.00
6038;BME280;3047;42.600;23.470;2023-04-25T06:47:49;92216.72;;;12.49;100.00
6038;BME280;3047;42.600;23.470;2023-04-25T06:50:16;92222.75;;;12.47;100.00
6038;BME280;3047;42.600;23.470;2023-04-25T06:52:42;92209.88;;;12.34;100.00
6038;BME280;3047;42.600;23.470;2023-04-25T06:55:09;92206.19;;;12.24;100.00
6038;BME280;3047;42.600;23.470;2023-04-25T06:57:36;92233.06;;;12.44;100.00
6038;BME280;3047;42.600;23.470;2023-04-25T07:00:03;92239.28;;;12.54;100.00
6038;BME280;3047;42.600;23.470;2023-04-25T07:02:34;92232.38;;;12.57;100.00
6038;BME280;3047;42.600;23.470;2023-04-25T07:05:03;92236.53;;;12.58;100.00
6038;BME280;3047;42.600;23.470;2023-04-25T07:07:29;92234.81;;;12.76;100.00
6038;BME280;3047;42.600;23.470;2023-04-25T07:09:56;92236.53;;;12.92;100.00
6038;BME280;3047;42.600;23.470;2023-04-25T07:12:23;92235.34;;;12.99;100.00
6038;BME280;3047;42.600;23.470;2023-04-25T07:14:49;92230.53;;;13.10;100.00
6038;BME280;3047;42.600;23.470;2023-04-25T07:17:16;92226.78;;;13.17;100.00
6038;BME280;3047;42.600;23.470;2023-04-25T07:19:43;92215.44;;;13.24;100.00
6038;BME280;3047;42.600;23.470;2023-04-25T07:22:11;92235.50;;;13.60;100.00
6038;BME280;3047;42.600;23.470;2023-04-25T07:24:38;92198.50;;;13.56;100.00
6038;BME280;3047;42.600;23.470;2023-04-25T07:27:04;92232.47;;;13.85;100.00
6038;BME280;3047;42.600;23.470;2023-04-25T07:29:31;92240.97;;;13.84;100.00
6038;BME280;3047;42.600;23.470;2023-04-25T07:32:01;92230.81;;;13.84;100.00
6038;BME280;3047;42.600;23.470;2023-04-25T07:34:27;92232.22;;;13.90;100.00
6038;BME280;3047;42.600;23.470;2023-04-25T07:36:55;92189.16;;;13.73;100.00
6038;BME280;3047;42.600;23.470;2023-04-25T07:39:23;92218.66;;;14.05;100.00
6038;BME280;3047;42.600;23.470;2023-04-25T07:41:50;92221.59;;;14.14;100.00
6038;BME280;3047;42.600;23.470;2023-04-25T07:44:16;92224.88;;;14.16;100.00
6038;BME280;3047;42.600;23.470;2023-04-25T07:46:43;92224.38;;;14.09;100.00
6038;BME280;3047;42.600;23.470;2023-04-25T07:49:10;92224.63;;;14.20;100.00
6038;BME280;3047;42.600;23.470;2023-04-25T07:51:37;92212.41;;;14.27;100.00
6038;BME280;3047;42.600;23.470;2023-04-25T07:54:03;92219.75;;;14.31;100.00
6038;BME280;3047;42.600;23.470;2023-04-25T07:56:32;92210.28;;;14.19;100.00
6038;BME280;3047;42.600;23.470;2023-04-25T07:58:58;92207.63;;;14.06;100.00
6038;BME280;3047;42.600;23.470;2023-04-25T08:01:26;92192.19;;;14.09;100.00
6038;BME280;3047;42.600;23.470;2023-04-25T08:03:53;92216.78;;;14.39;100.00
6038;BME280;3047;42.600;23.470;2023-04-25T08:06:19;92161.09;;;14.06;100.00
6038;BME280;3047;42.600;23.470;2023-04-25T08:08:46;92217.03;;;14.34;100.00
6038;BME280;3047;42.600;23.470;2023-04-25T08:11:13;92223.81;;;14.34;100.00
6038;BME280;3047;42.600;23.470;2023-04-25T08:13:41;92202.03;;;14.30;100.00
6038;BME280;3047;42.600;23.470;2023-04-25T08:16:07;92184.06;;;14.19;100.00
6038;BME280;3047;42.600;23.470;2023-04-25T08:18:34;92215.22;;;14.37;100.00
6038;BME280;3047;42.600;23.470;2023-04-25T08:21:01;92211.78;;;14.38;100.00
6038;BME280;3047;42.600;23.470;2023-04-25T08:23:27;92232.09;;;14.38;100.00
6038;BME280;3047;42.600;23.470;2023-04-25T08:25:54;92179.69;;;14.06;100.00
6038;BME280;3047;42.600;23.470;2023-04-25T08:28:21;92227.75;;;14.40;100.00
6038;BME280;3047;42.600;23.470;2023-04-25T08:30:49;92219.56;;;14.50;100.00
6038;BME280;3047;42.600;23.470;2023-04-25T08:33:15;92214.00;;;14.58;100.00
6038;BME280;3047;42.600;23.470;2023-04-25T08:35:44;92210.69;;;14.72;100.00
6038;BME280;3047;42.600;23.470;2023-04-25T08:38:11;92200.16;;;14.78;100.00
6038;BME280;3047;42.600;23.470;2023-04-25T08:40:38;92203.44;;;14.94;100.00
6038;BME280;3047;42.600;23.470;2023-04-25T08:43:06;92171.78;;;15.27;100.00
6038;BME280;3047;42.600;23.470;2023-04-25T08:45:39;92196.25;;;15.71;97.71
6038;BME280;3047;42.600;23.470;2023-04-25T08:48:07;92203.31;;;16.07;95.95
6038;BME280;3047;42.600;23.470;2023-04-25T08:50:37;92207.56;;;16.34;91.20
6038;BME280;3047;42.600;23.470;2023-04-25T08:53:08;92198.97;;;16.22;96.05
6038;BME280;3047;42.600;23.470;2023-04-25T08:55:39;92195.38;;;16.12;97.57
6038;BME280;3047;42.600;23.470;2023-04-25T08:58:09;92217.09;;;16.04;90.73
6038;BME280;3047;42.600;23.470;2023-04-25T09:00:37;92206.56;;;15.96;93.24
6038;BME280;3047;42.600;23.470;2023-04-25T09:03:03;92196.13;;;15.87;92.20
6038;BME280;3047;42.600;23.470;2023-04-25T09:05:32;92220.88;;;15.85;93.31
6038;BME280;3047;42.600;23.470;2023-04-25T09:08:00;92212.22;;;15.87;90.63
6038;BME280;3047;42.600;23.470;2023-04-25T09:10:26;92220.09;;;15.97;89.38
6038;BME280;3047;42.600;23.470;2023-04-25T09:13:12;92202.78;;;16.29;99.00
6038;BME280;3047;42.600;23.470;2023-04-25T09:15:47;92184.97;;;16.54;93.33
6038;BME280;3047;42.600;23.470;2023-04-25T09:18:22;92207.84;;;17.07;94.07
6038;BME280;3047;42.600;23.470;2023-04-25T09:20:52;92218.22;;;17.29;88.64
6038;BME280;3047;42.600;23.470;2023-04-25T09:23:19;92188.91;;;17.48;90.62
6038;BME280;3047;42.600;23.470;2023-04-25T09:25:47;92177.16;;;17.45;91.48
6038;BME280;3047;42.600;23.470;2023-04-25T09:28:14;92164.91;;;17.50;96.69
6038;BME280;3047;42.600;23.470;2023-04-25T09:30:42;92193.72;;;17.76;98.76
6038;BME280;3047;42.600;23.470;2023-04-25T09:33:09;92186.78;;;17.78;96.39
6038;BME280;3047;42.600;23.470;2023-04-25T09:35:37;92185.09;;;17.53;92.37
6038;BME280;3047;42.600;23.470;2023-04-25T09:38:10;92181.13;;;17.49;96.80
6038;BME280;3047;42.600;23.470;2023-04-25T09:40:41;92164.69;;;17.41;94.96
6038;BME280;3047;42.600;23.470;2023-04-25T09:43:18;92181.59;;;17.67;97.13
6038;BME280;3047;42.600;23.470;2023-04-25T09:45:45;92187.72;;;17.65;93.89
6038;BME280;3047;42.600;23.470;2023-04-25T09:48:17;92182.66;;;17.52;97.20
6038;BME280;3047;42.600;23.470;2023-04-25T09:50:44;92146.47;;;17.34;96.84
6038;BME280;3047;42.600;23.470;2023-04-25T09:53:12;92183.19;;;17.44;96.37
6038;BME280;3047;42.600;23.470;2023-04-25T09:55:39;92181.34;;;17.34;96.29
6038;BME280;3047;42.600;23.470;2023-04-25T09:58:08;92180.47;;;17.09;97.21
6038;BME280;3047;42.600;23.470;2023-04-25T10:00:37;92169.38;;;16.85;98.37
6038;BME280;3047;42.600;23.470;2023-04-25T10:03:05;92182.63;;;16.77;100.00
6038;BME280;3047;42.600;23.470;2023-04-25T10:05:34;92194.81;;;16.73;98.07
6038;BME280;3047;42.600;23.470;2023-04-25T10:08:03;92198.72;;;16.65;92.39
6038;BME280;3047;42.600;23.470;2023-04-25T10:10:32;92151.38;;;16.10;92.05
6038;BME280;3047;42.600;23.470;2023-04-25T10:13:03;92195.72;;;16.32;93.92
6038;BME280;3047;42.600;23.470;2023-04-25T10:15:32;92187.25;;;16.19;94.18
6038;BME280;3047;42.600;23.470;2023-04-25T10:18:00;92175.00;;;16.12;94.49
6038;BME280;3047;42.600;23.470;2023-04-25T10:20:28;92151.53;;;15.94;97.43
6038;BME280;3047;42.600;23.470;2023-04-25T10:22:55;92156.41;;;15.84;94.34
6038;BME280;3047;42.600;23.470;2023-04-25T10:25:25;92148.13;;;15.80;97.37
6038;BME280;3047;42.600;23.470;2023-04-25T10:27:53;92147.13;;;15.83;98.75
6038;BME280;3047;42.600;23.470;2023-04-25T10:30:20;92149.19;;;16.03;100.00
6038;BME280;3047;42.600;23.470;2023-04-25T10:32:46;92148.53;;;16.52;99.36
6038;BME280;3047;42.600;23.470;2023-04-25T10:35:16;92154.16;;;16.70;96.00
6038;BME280;3047;42.600;23.470;2023-04-25T10:38:13;92130.94;;;16.62;91.57
6038;BME280;3047;42.600;23.470;2023-04-25T10:40:40;92144.78;;;16.71;91.00
6038;BME280;3047;42.600;23.470;2023-04-25T10:43:37;92161.66;;;16.73;94.67
6038;BME280;3047;42.600;23.470;2023-04-25T10:46:16;92144.47;;;16.37;99.43
6038;BME280;3047;42.600;23.470;2023-04-25T10:48:50;92159.28;;;16.45;100.00
6038;BME280;3047;42.600;23.470;2023-04-25T10:51:20;92160.66;;;16.36;98.63
6038;BME280;3047;42.600;23.470;2023-04-25T10:53:48;92147.41;;;16.31;96.18
6038;BME280;3047;42.600;23.470;2023-04-25T10:56:24;92166.81;;;16.34;97.02
6038;BME280;3047;42.600;23.470;2023-04-25T10:59:03;92171.16;;;16.31;94.32
6038;BME280;3047;42.600;23.470;2023-04-25T11:01:36;92144.56;;;16.23;99.76
6038;BME280;3047;42.600;23.470;2023-04-25T11:04:03;92157.19;;;16.24;100.00
6038;BME280;3047;42.600;23.470;2023-04-25T11:06:37;92188.34;;;16.15;91.01
6038;BME280;3047;42.600;23.470;2023-04-25T11:09:11;92192.59;;;16.02;95.21
6038;BME280;3047;42.600;23.470;2023-04-25T11:11:39;92184.69;;;15.79;95.64
6038;BME280;3047;42.600;23.470;2023-04-25T11:14:07;92180.97;;;15.44;94.46
6038;BME280;3047;42.600;23.470;2023-04-25T11:16:34;92184.25;;;15.17;93.56
6038;BME280;3047;42.600;23.470;2023-04-25T11:19:01;92192.53;;;15.21;93.88
6038;BME280;3047;42.600;23.470;2023-04-25T11:21:29;92204.25;;;15.09;96.17
6038;BME280;3047;42.600;23.470;2023-04-25T11:23:57;92203.72;;;15.04;98.37
6038;BME280;3047;42.600;23.470;2023-04-25T11:26:24;92164.75;;;14.89;99.11
6038;BME280;3047;42.600;23.470;2023-04-25T11:28:51;92175.63;;;15.05;100.00
6038;BME280;3047;42.600;23.470;2023-04-25T11:31:21;92158.00;;;15.02;100.00
6038;BME280;3047;42.600;23.470;2023-04-25T11:33:48;92154.59;;;15.03;100.00
6038;BME280;3047;42.600;23.470;2023-04-25T11:36:14;92153.50;;;15.07;100.00
6038;BME280;3047;42.600;23.470;2023-04-25T11:38:41;92099.00;;;14.97;100.00
6038;BME280;3047;42.600;23.470;2023-04-25T11:41:08;92144.75;;;15.53;100.00
6038;BME280;3047;42.600;23.470;2023-04-25T11:43:35;92143.00;;;15.53;100.00
6038;BME280;3047;42.600;23.470;2023-04-25T11:46:06;92161.84;;;15.65;98.77
6038;BME280;3047;42.600;23.470;2023-04-25T11:48:38;92143.94;;;15.52;100.00
6038;BME280;3047;42.600;23.470;2023-04-25T11:51:05;92157.00;;;15.61;99.24
6038;BME280;3047;42.600;23.470;2023-04-25T11:53:32;92163.91;;;15.58;98.75
6038;BME280;3047;42.600;23.470;2023-04-25T11:55:58;92175.47;;;15.50;98.06
6038;BME280;3047;42.600;23.470;2023-04-25T11:58:26;92178.88;;;15.36;98.08
6038;BME280;3047;42.600;23.470;2023-04-25T12:00:52;92172.41;;;15.30;100.00
6038;BME280;3047;42.600;23.470;2023-04-25T12:03:19;92177.72;;;15.27;100.00
6038;BME280;3047;42.600;23.470;2023-04-25T12:05:48;92172.28;;;15.19;100.00
6038;BME280;3047;42.600;23.470;2023-04-25T12:08:15;92170.28;;;15.10;100.00
6038;BME280;3047;42.600;23.470;2023-04-25T12:10:44;92170.56;;;15.05;100.00
6038;BME280;3047;42.600;23.470;2023-04-25T12:13:19;92158.94;;;15.01;100.00
6038;BME280;3047;42.600;23.470;2023-04-25T12:15:46;92162.47;;;14.99;100.00
6038;BME280;3047;42.600;23.470;2023-04-25T12:18:13;92177.91;;;14.81;100.00
6038;BME280;3047;42.600;23.470;2023-04-25T12:20:41;92174.88;;;14.46;100.00
6038;BME280;3047;42.600;23.470;2023-04-25T12:23:09;92168.13;;;14.01;100.00
6038;BME280;3047;42.600;23.470;2023-04-25T12:25:38;92156.88;;;13.91;100.00
6038;BME280;3047;42.600;23.470;2023-04-25T12:28:12;92129.81;;;13.75;100.00
6038;BME280;3047;42.600;23.470;2023-04-25T12:30:59;92113.44;;;13.65;100.00
6038;BME280;3047;42.600;23.470;2023-04-25T12:33:28;92126.06;;;13.67;100.00
6038;BME280;3047;42.600;23.470;2023-04-25T12:35:55;92110.03;;;13.66;100.00
6038;BME280;3047;42.600;23.470;2023-04-25T12:38:25;92106.06;;;13.76;100.00
6038;BME280;3047;42.600;23.470;2023-04-25T12:40:52;92088.81;;;13.67;100.00
6038;BME280;3047;42.600;23.470;2023-04-25T12:43:19;92123.81;;;13.76;100.00
6038;BME280;3047;42.600;23.470;2023-04-25T12:45:47;92130.56;;;13.77;100.00
6038;BME280;3047;42.600;23.470;2023-04-25T12:48:15;92138.88;;;13.79;100.00
6038;BME280;3047;42.600;23.470;2023-04-25T12:50:42;92145.59;;;13.80;100.00
6038;BME280;3047;42.600;23.470;2023-04-25T12:53:09;92144.31;;;13.73;100.00
6038;BME280;3047;42.600;23.470;2023-04-25T12:55:38;92122.88;;;13.63;100.00
6038;BME280;3047;42.600;23.470;2023-04-25T12:58:05;92128.50;;;13.68;100.00
6038;BME280;3047;42.600;23.470;2023-04-25T13:00:31;92137.03;;;13.67;100.00
6038;BME280;3047;42.600;23.470;2023-04-25T13:02:58;92140.47;;;13.66;100.00
6038;BME280;3047;42.600;23.470;2023-04-25T13:05:25;92162.00;;;13.75;100.00